Aviation Digital Data Service (ADDS)

Output produced by METARs form (1140 UTC 27 May 2017)
found at http://www.aviationweather.gov/adds/metars/
 
LDSB 271100Z 01010KT 9999 FEW030 21/07 Q1018
TAF LDSB 271125Z 2712/2812 04012KT CAVOK TX23/2713Z TN15/2803Z 
     TEMPO 2712/2716 30010KT 
     BECMG 2809/2811 22008KT
       
LDDU 271130Z VRB06KT 9999 FEW035 26/08 Q1016 BECMG 30008KT
TAF LDDU 271125Z 2712/2812 32009KT 9999 FEW025 TX26/2712Z TN15/2803Z 
     PROB40 
     TEMPO 2712/2718 VRB12G25KT 
     BECMG 2715/2717 02015KT 
     TEMPO 2717/2723 02020G30KT 
     PROB30 
     TEMPO 2718/2806 02025G38KT 
     BECMG 2808/2810 28008KT
       
LDOS 271130Z 36010KT 340V060 9999 FEW037 SCT043 23/09 Q1019
TAF LDOS 271125Z 2712/2812 35008KT CAVOK TX26/2811Z TN11/2804Z
       
LDPL 271130Z 30010KT 9999 BKN055 24/13 Q1020 NOSIG
TAF LDPL 271125Z 2712/2812 27010KT CAVOK TX26/2811Z TN15/2802Z 
     BECMG 2717/2719 VRB02KT 
     BECMG 2804/2806 06006KT 
     BECMG 2809/2811 27010KT
       
LDRI 271130Z VRB02KT 9999 FEW043 SCT050 25/13 Q1019
TAF LDRI 271125Z 2712/2812 VRB02KT CAVOK TX26/2713Z TN15/2802Z 
     TEMPO 2712/2717 32006KT
       
LDDU 271130Z VRB06KT 9999 FEW035 26/08 Q1016 BECMG 30008KT
TAF LDDU 271125Z 2712/2812 32009KT 9999 FEW025 TX26/2712Z TN15/2803Z 
     PROB40 
     TEMPO 2712/2718 VRB12G25KT 
     BECMG 2715/2717 02015KT 
     TEMPO 2717/2723 02020G30KT 
     PROB30 
     TEMPO 2718/2806 02025G38KT 
     BECMG 2808/2810 28008KT
       
LDLO 271100Z VRB07KT CAVOK 26/12 Q1020
TAF LDLO 271125Z 2712/2812 36008KT CAVOK TX26/2712Z TN16/2802Z 
     BECMG 2809/2811 20006KT
       
LDOS 271130Z 36010KT 340V060 9999 FEW037 SCT043 23/09 Q1019
TAF LDOS 271125Z 2712/2812 35008KT CAVOK TX26/2811Z TN11/2804Z
       
LDPL 271130Z 30010KT 9999 BKN055 24/13 Q1020 NOSIG
TAF LDPL 271125Z 2712/2812 27010KT CAVOK TX26/2811Z TN15/2802Z 
     BECMG 2717/2719 VRB02KT 
     BECMG 2804/2806 06006KT 
     BECMG 2809/2811 27010KT
       
LDRI 271130Z VRB02KT 9999 FEW043 SCT050 25/13 Q1019
TAF LDRI 271125Z 2712/2812 VRB02KT CAVOK TX26/2713Z TN15/2802Z 
     TEMPO 2712/2717 32006KT
       
LDSB 271100Z 01010KT 9999 FEW030 21/07 Q1018
TAF LDSB 271125Z 2712/2812 04012KT CAVOK TX23/2713Z TN15/2803Z 
     TEMPO 2712/2716 30010KT 
     BECMG 2809/2811 22008KT
       
LDSP 271130Z 05011KT 020V110 9999 FEW060 27/06 Q1017 NOSIG
TAF LDSP 271125Z 2712/2812 05008KT CAVOK TX27/2714Z TN16/2803Z 
     PROB40 
     TEMPO 2712/2715 23008KT 
     TEMPO 2717/2721 05018KT 
     BECMG 2721/2723 34007KT 
     BECMG 2810/2812 23010KT
       
LDZA 271130Z VRB08KT CAVOK 24/09 Q1020 BECMG 05008KT
TAF LDZA 271125Z 2712/2812 05008KT CAVOK TX27/2811Z TN12/2803Z 
     BECMG 2718/2720 VRB02KT
       
LDZD 271130Z 25006KT 190V320 9999 FEW050 26/11 Q1018 BECMG 04006KT
TAF LDZD 271125Z 2712/2812 04006KT CAVOK TX26/2713Z TN12/2803Z 
     TEMPO 2712/2717 32006KT 
     TEMPO 2720/2806 VRB02KT
       
LDSP 271130Z 05011KT 020V110 9999 FEW060 27/06 Q1017 NOSIG
TAF LDSP 271125Z 2712/2812 05008KT CAVOK TX27/2714Z TN16/2803Z 
     PROB40 
     TEMPO 2712/2715 23008KT 
     TEMPO 2717/2721 05018KT 
     BECMG 2721/2723 34007KT 
     BECMG 2810/2812 23010KT
       
LDZD 271130Z 25006KT 190V320 9999 FEW050 26/11 Q1018 BECMG 04006KT
TAF LDZD 271125Z 2712/2812 04006KT CAVOK TX26/2713Z TN12/2803Z 
     TEMPO 2712/2717 32006KT 
     TEMPO 2720/2806 VRB02KT
       
LDZA 271130Z VRB08KT CAVOK 24/09 Q1020 BECMG 05008KT
TAF LDZA 271125Z 2712/2812 05008KT CAVOK TX27/2811Z TN12/2803Z 
     BECMG 2718/2720 VRB02KT